sensor_id;sensor_type;location;lat;lon;timestamp;P1;durP1;ratioP1;P2;durP2;ratioP2
36551;SDS011;22559;54.176;12.102;2022-08-07T00:01:14;2.17;;;1.70;;
36551;SDS011;22559;54.176;12.102;2022-08-07T00:03:40;3.53;;;1.80;;
36551;SDS011;22559;54.176;12.102;2022-08-07T00:06:06;2.70;;;1.90;;
36551;SDS011;22559;54.176;12.102;2022-08-07T00:08:32;2.30;;;2.10;;
36551;SDS011;22559;54.176;12.102;2022-08-07T00:10:58;2.53;;;1.93;;
36551;SDS011;22559;54.176;12.102;2022-08-07T00:13:23;3.43;;;2.00;;
36551;SDS011;22559;54.176;12.102;2022-08-07T00:15:50;2.43;;;2.20;;
36551;SDS011;22559;54.176;12.102;2022-08-07T00:18:17;3.30;;;1.93;;
36551;SDS011;22559;54.176;12.102;2022-08-07T00:20:45;2.43;;;1.80;;
36551;SDS011;22559;54.176;12.102;2022-08-07T00:23:11;2.43;;;1.80;;
36551;SDS011;22559;54.176;12.102;2022-08-07T00:25:36;5.90;;;2.20;;
36551;SDS011;22559;54.176;12.102;2022-08-07T00:28:02;2.40;;;1.90;;
36551;SDS011;22559;54.176;12.102;2022-08-07T00:30:28;3.30;;;2.40;;
36551;SDS011;22559;54.176;12.102;2022-08-07T00:32:57;3.20;;;1.93;;
36551;SDS011;22559;54.176;12.102;2022-08-07T00:35:24;3.07;;;1.90;;
36551;SDS011;22559;54.176;12.102;2022-08-07T00:37:50;2.03;;;1.80;;
36551;SDS011;22559;54.176;12.102;2022-08-07T00:40:16;2.03;;;1.93;;
36551;SDS011;22559;54.176;12.102;2022-08-07T00:42:42;2.40;;;2.07;;
36551;SDS011;22559;54.176;12.102;2022-08-07T00:45:09;4.50;;;2.00;;
36551;SDS011;22559;54.176;12.102;2022-08-07T00:47:35;5.37;;;2.10;;
36551;SDS011;22559;54.176;12.102;2022-08-07T00:50:02;1.97;;;1.87;;
36551;SDS011;22559;54.176;12.102;2022-08-07T00:52:28;2.40;;;2.10;;
36551;SDS011;22559;54.176;12.102;2022-08-07T00:54:53;2.77;;;1.97;;
36551;SDS011;22559;54.176;12.102;2022-08-07T00:57:20;5.60;;;2.10;;
36551;SDS011;22559;54.176;12.102;2022-08-07T00:59:49;3.93;;;1.83;;
36551;SDS011;22559;54.176;12.102;2022-08-07T01:02:15;3.17;;;2.40;;
36551;SDS011;22559;54.176;12.102;2022-08-07T01:04:41;4.43;;;2.43;;
36551;SDS011;22559;54.176;12.102;2022-08-07T01:07:07;3.70;;;2.50;;
36551;SDS011;22559;54.176;12.102;2022-08-07T01:09:33;3.80;;;2.30;;
36551;SDS011;22559;54.176;12.102;2022-08-07T01:11:59;2.60;;;2.37;;
36551;SDS011;22559;54.176;12.102;2022-08-07T01:14:25;3.80;;;2.43;;
36551;SDS011;22559;54.176;12.102;2022-08-07T01:16:51;4.40;;;2.20;;
36551;SDS011;22559;54.176;12.102;2022-08-07T01:19:18;3.73;;;1.93;;
36551;SDS011;22559;54.176;12.102;2022-08-07T01:21:46;2.60;;;2.10;;
36551;SDS011;22559;54.176;12.102;2022-08-07T01:24:14;2.90;;;2.10;;
36551;SDS011;22559;54.176;12.102;2022-08-07T01:26:40;4.07;;;1.97;;
36551;SDS011;22559;54.176;12.102;2022-08-07T01:29:06;2.13;;;1.90;;
36551;SDS011;22559;54.176;12.102;2022-08-07T01:31:31;3.67;;;2.20;;
36551;SDS011;22559;54.176;12.102;2022-08-07T01:34:00;3.63;;;2.70;;
36551;SDS011;22559;54.176;12.102;2022-08-07T01:36:27;4.13;;;2.37;;
36551;SDS011;22559;54.176;12.102;2022-08-07T01:38:54;4.90;;;2.43;;
36551;SDS011;22559;54.176;12.102;2022-08-07T01:41:20;2.20;;;2.10;;
36551;SDS011;22559;54.176;12.102;2022-08-07T01:43:46;4.37;;;2.30;;
36551;SDS011;22559;54.176;12.102;2022-08-07T01:46:13;2.10;;;2.00;;
36551;SDS011;22559;54.176;12.102;2022-08-07T01:48:43;5.00;;;2.23;;
36551;SDS011;22559;54.176;12.102;2022-08-07T01:51:11;4.83;;;2.20;;
36551;SDS011;22559;54.176;12.102;2022-08-07T01:53:43;2.43;;;2.23;;
36551;SDS011;22559;54.176;12.102;2022-08-07T01:56:13;4.20;;;2.83;;
36551;SDS011;22559;54.176;12.102;2022-08-07T01:58:43;3.00;;;2.63;;
36551;SDS011;22559;54.176;12.102;2022-08-07T02:01:17;3.80;;;2.47;;
36551;SDS011;22559;54.176;12.102;2022-08-07T02:03:50;2.23;;;2.13;;
36551;SDS011;22559;54.176;12.102;2022-08-07T02:06:26;2.67;;;2.40;;
36551;SDS011;22559;54.176;12.102;2022-08-07T02:08:55;3.30;;;2.50;;
36551;SDS011;22559;54.176;12.102;2022-08-07T02:11:24;3.63;;;2.53;;
36551;SDS011;22559;54.176;12.102;2022-08-07T02:13:50;2.77;;;2.43;;
36551;SDS011;22559;54.176;12.102;2022-08-07T02:16:18;4.20;;;2.30;;
36551;SDS011;22559;54.176;12.102;2022-08-07T02:18:46;2.50;;;2.30;;
36551;SDS011;22559;54.176;12.102;2022-08-07T02:21:13;4.63;;;2.60;;
36551;SDS011;22559;54.176;12.102;2022-08-07T02:23:40;2.57;;;2.33;;
36551;SDS011;22559;54.176;12.102;2022-08-07T02:26:07;3.23;;;2.27;;
36551;SDS011;22559;54.176;12.102;2022-08-07T02:28:35;3.47;;;2.50;;
36551;SDS011;22559;54.176;12.102;2022-08-07T02:31:03;4.70;;;2.33;;
36551;SDS011;22559;54.176;12.102;2022-08-07T02:33:30;2.60;;;2.40;;
36551;SDS011;22559;54.176;12.102;2022-08-07T02:35:57;3.13;;;2.37;;
36551;SDS011;22559;54.176;12.102;2022-08-07T02:38:26;3.67;;;2.50;;
36551;SDS011;22559;54.176;12.102;2022-08-07T02:40:55;4.63;;;2.60;;
36551;SDS011;22559;54.176;12.102;2022-08-07T02:43:22;2.87;;;2.63;;
36551;SDS011;22559;54.176;12.102;2022-08-07T02:45:50;3.00;;;2.67;;
36551;SDS011;22559;54.176;12.102;2022-08-07T02:48:18;2.80;;;2.60;;
36551;SDS011;22559;54.176;12.102;2022-08-07T02:50:44;2.40;;;2.20;;
36551;SDS011;22559;54.176;12.102;2022-08-07T02:53:14;3.13;;;2.83;;
36551;SDS011;22559;54.176;12.102;2022-08-07T02:55:46;3.70;;;2.43;;
36551;SDS011;22559;54.176;12.102;2022-08-07T02:58:13;3.80;;;2.53;;
36551;SDS011;22559;54.176;12.102;2022-08-07T03:00:44;2.53;;;2.37;;
36551;SDS011;22559;54.176;12.102;2022-08-07T03:03:10;2.83;;;2.50;;
36551;SDS011;22559;54.176;12.102;2022-08-07T03:05:39;4.57;;;2.43;;
36551;SDS011;22559;54.176;12.102;2022-08-07T03:08:06;4.47;;;2.37;;
36551;SDS011;22559;54.176;12.102;2022-08-07T03:10:33;5.37;;;2.50;;
36551;SDS011;22559;54.176;12.102;2022-08-07T03:12:59;3.20;;;2.27;;
36551;SDS011;22559;54.176;12.102;2022-08-07T03:15:26;5.13;;;2.80;;
36551;SDS011;22559;54.176;12.102;2022-08-07T03:17:53;4.23;;;2.33;;
36551;SDS011;22559;54.176;12.102;2022-08-07T03:20:20;2.97;;;2.77;;
36551;SDS011;22559;54.176;12.102;2022-08-07T03:22:47;5.60;;;2.93;;
36551;SDS011;22559;54.176;12.102;2022-08-07T03:25:14;3.63;;;3.00;;
36551;SDS011;22559;54.176;12.102;2022-08-07T03:27:42;7.13;;;3.00;;
36551;SDS011;22559;54.176;12.102;2022-08-07T03:30:10;4.60;;;2.97;;
36551;SDS011;22559;54.176;12.102;2022-08-07T03:32:38;5.07;;;3.07;;
36551;SDS011;22559;54.176;12.102;2022-08-07T03:35:06;3.63;;;2.80;;
36551;SDS011;22559;54.176;12.102;2022-08-07T03:37:36;2.80;;;2.60;;
36551;SDS011;22559;54.176;12.102;2022-08-07T03:40:04;2.60;;;2.40;;
36551;SDS011;22559;54.176;12.102;2022-08-07T03:42:30;4.00;;;2.97;;
36551;SDS011;22559;54.176;12.102;2022-08-07T03:44:58;3.07;;;2.80;;
36551;SDS011;22559;54.176;12.102;2022-08-07T03:47:25;4.23;;;2.77;;
36551;SDS011;22559;54.176;12.102;2022-08-07T03:49:51;2.87;;;2.40;;
36551;SDS011;22559;54.176;12.102;2022-08-07T03:52:19;3.10;;;2.80;;
36551;SDS011;22559;54.176;12.102;2022-08-07T03:54:50;5.93;;;3.60;;
36551;SDS011;22559;54.176;12.102;2022-08-07T03:57:16;7.07;;;3.83;;
36551;SDS011;22559;54.176;12.102;2022-08-07T03:59:43;7.83;;;4.17;;
36551;SDS011;22559;54.176;12.102;2022-08-07T04:02:09;5.53;;;4.27;;
36551;SDS011;22559;54.176;12.102;2022-08-07T04:04:35;5.90;;;3.87;;
36551;SDS011;22559;54.176;12.102;2022-08-07T04:07:01;7.13;;;4.50;;
36551;SDS011;22559;54.176;12.102;2022-08-07T04:09:28;5.90;;;4.47;;
36551;SDS011;22559;54.176;12.102;2022-08-07T04:11:55;5.03;;;4.30;;
36551;SDS011;22559;54.176;12.102;2022-08-07T04:14:21;8.83;;;5.07;;
36551;SDS011;22559;54.176;12.102;2022-08-07T04:16:48;6.73;;;4.20;;
36551;SDS011;22559;54.176;12.102;2022-08-07T04:19:14;7.67;;;4.93;;
36551;SDS011;22559;54.176;12.102;2022-08-07T04:21:40;4.90;;;3.87;;
36551;SDS011;22559;54.176;12.102;2022-08-07T04:24:06;9.53;;;4.13;;
36551;SDS011;22559;54.176;12.102;2022-08-07T04:26:37;8.00;;;4.37;;
36551;SDS011;22559;54.176;12.102;2022-08-07T04:29:05;4.70;;;4.00;;
36551;SDS011;22559;54.176;12.102;2022-08-07T04:31:34;6.97;;;4.13;;
36551;SDS011;22559;54.176;12.102;2022-08-07T04:34:03;6.57;;;4.33;;
36551;SDS011;22559;54.176;12.102;2022-08-07T04:36:30;8.60;;;4.63;;
36551;SDS011;22559;54.176;12.102;2022-08-07T04:38:56;7.23;;;5.03;;
36551;SDS011;22559;54.176;12.102;2022-08-07T04:41:22;6.67;;;5.00;;
36551;SDS011;22559;54.176;12.102;2022-08-07T04:43:48;9.37;;;4.53;;
36551;SDS011;22559;54.176;12.102;2022-08-07T04:59:27;5.23;;;4.73;;
36551;SDS011;22559;54.176;12.102;2022-08-07T05:04:30;6.60;;;4.17;;
36551;SDS011;22559;54.176;12.102;2022-08-07T05:07:07;6.73;;;4.37;;
36551;SDS011;22559;54.176;12.102;2022-08-07T05:09:43;9.60;;;5.10;;
36551;SDS011;22559;54.176;12.102;2022-08-07T05:12:21;7.93;;;5.67;;
36551;SDS011;22559;54.176;12.102;2022-08-07T05:14:52;5.37;;;4.87;;
36551;SDS011;22559;54.176;12.102;2022-08-07T05:17:21;6.23;;;5.20;;
36551;SDS011;22559;54.176;12.102;2022-08-07T05:19:49;6.00;;;5.13;;
36551;SDS011;22559;54.176;12.102;2022-08-07T05:22:17;9.63;;;5.47;;
36551;SDS011;22559;54.176;12.102;2022-08-07T05:24:45;6.10;;;5.13;;
36551;SDS011;22559;54.176;12.102;2022-08-07T05:27:12;6.33;;;5.40;;
36551;SDS011;22559;54.176;12.102;2022-08-07T05:29:40;5.70;;;4.67;;
36551;SDS011;22559;54.176;12.102;2022-08-07T05:32:09;7.00;;;4.47;;
36551;SDS011;22559;54.176;12.102;2022-08-07T05:34:36;5.63;;;4.10;;
36551;SDS011;22559;54.176;12.102;2022-08-07T05:37:04;4.90;;;3.80;;
36551;SDS011;22559;54.176;12.102;2022-08-07T05:39:31;5.53;;;3.20;;
36551;SDS011;22559;54.176;12.102;2022-08-07T05:41:59;8.67;;;3.77;;
36551;SDS011;22559;54.176;12.102;2022-08-07T05:44:24;4.63;;;3.40;;
36551;SDS011;22559;54.176;12.102;2022-08-07T05:46:51;7.97;;;4.00;;
36551;SDS011;22559;54.176;12.102;2022-08-07T05:49:16;6.00;;;3.63;;
36551;SDS011;22559;54.176;12.102;2022-08-07T05:51:44;4.03;;;3.63;;
36551;SDS011;22559;54.176;12.102;2022-08-07T05:54:10;6.93;;;4.00;;
36551;SDS011;22559;54.176;12.102;2022-08-07T05:56:38;5.63;;;3.90;;
36551;SDS011;22559;54.176;12.102;2022-08-07T05:59:05;3.83;;;3.53;;
36551;SDS011;22559;54.176;12.102;2022-08-07T06:01:39;4.13;;;3.60;;
36551;SDS011;22559;54.176;12.102;2022-08-07T06:04:06;5.73;;;3.83;;
36551;SDS011;22559;54.176;12.102;2022-08-07T06:06:33;3.67;;;3.17;;
36551;SDS011;22559;54.176;12.102;2022-08-07T06:08:59;6.17;;;3.70;;
36551;SDS011;22559;54.176;12.102;2022-08-07T06:11:26;3.67;;;3.30;;
36551;SDS011;22559;54.176;12.102;2022-08-07T06:13:52;6.43;;;3.70;;
36551;SDS011;22559;54.176;12.102;2022-08-07T06:16:19;3.50;;;3.20;;
36551;SDS011;22559;54.176;12.102;2022-08-07T06:18:47;3.33;;;2.97;;
36551;SDS011;22559;54.176;12.102;2022-08-07T06:21:13;3.70;;;2.80;;
36551;SDS011;22559;54.176;12.102;2022-08-07T06:23:42;5.33;;;2.70;;
36551;SDS011;22559;54.176;12.102;2022-08-07T06:26:10;4.93;;;3.17;;
36551;SDS011;22559;54.176;12.102;2022-08-07T06:31:32;5.03;;;2.90;;
36551;SDS011;22559;54.176;12.102;2022-08-07T06:33:58;4.17;;;3.00;;
36551;SDS011;22559;54.176;12.102;2022-08-07T06:36:23;3.87;;;2.47;;
36551;SDS011;22559;54.176;12.102;2022-08-07T06:38:52;4.10;;;2.87;;
36551;SDS011;22559;54.176;12.102;2022-08-07T06:41:23;3.17;;;2.73;;
36551;SDS011;22559;54.176;12.102;2022-08-07T06:43:49;4.83;;;2.40;;
36551;SDS011;22559;54.176;12.102;2022-08-07T06:46:17;4.80;;;2.40;;
36551;SDS011;22559;54.176;12.102;2022-08-07T06:48:43;4.87;;;2.50;;
36551;SDS011;22559;54.176;12.102;2022-08-07T06:51:09;3.83;;;2.73;;
36551;SDS011;22559;54.176;12.102;2022-08-07T06:53:41;2.80;;;2.60;;
36551;SDS011;22559;54.176;12.102;2022-08-07T06:56:09;5.10;;;4.67;;
36551;SDS011;22559;54.176;12.102;2022-08-07T06:58:36;2.73;;;2.63;;
36551;SDS011;22559;54.176;12.102;2022-08-07T07:01:05;1.93;;;1.83;;
36551;SDS011;22559;54.176;12.102;2022-08-07T07:03:34;3.60;;;2.23;;
36551;SDS011;22559;54.176;12.102;2022-08-07T07:06:04;3.20;;;2.50;;
36551;SDS011;22559;54.176;12.102;2022-08-07T07:08:30;2.33;;;2.10;;
36551;SDS011;22559;54.176;12.102;2022-08-07T07:10:56;2.30;;;2.20;;
36551;SDS011;22559;54.176;12.102;2022-08-07T07:13:24;3.65;;;2.35;;
36551;SDS011;22559;54.176;12.102;2022-08-07T07:15:53;4.45;;;2.40;;
36551;SDS011;22559;54.176;12.102;2022-08-07T07:18:26;2.22;;;1.95;;
36551;SDS011;22559;54.176;12.102;2022-08-07T07:20:56;2.90;;;2.20;;
36551;SDS011;22559;54.176;12.102;2022-08-07T07:23:27;2.78;;;2.03;;
36551;SDS011;22559;54.176;12.102;2022-08-07T07:25:58;2.70;;;2.45;;
36551;SDS011;22559;54.176;12.102;2022-08-07T07:28:26;2.50;;;2.22;;
36551;SDS011;22559;54.176;12.102;2022-08-07T07:31:01;2.35;;;2.20;;
36551;SDS011;22559;54.176;12.102;2022-08-07T07:33:29;3.35;;;2.30;;
36551;SDS011;22559;54.176;12.102;2022-08-07T07:35:57;4.05;;;2.35;;
36551;SDS011;22559;54.176;12.102;2022-08-07T07:38:25;2.60;;;2.17;;
36551;SDS011;22559;54.176;12.102;2022-08-07T07:40:52;4.22;;;2.50;;
36551;SDS011;22559;54.176;12.102;2022-08-07T07:43:20;4.40;;;2.63;;
36551;SDS011;22559;54.176;12.102;2022-08-07T07:45:47;3.25;;;2.70;;
36551;SDS011;22559;54.176;12.102;2022-08-07T07:48:16;2.85;;;2.65;;
36551;SDS011;22559;54.176;12.102;2022-08-07T07:50:45;2.67;;;2.47;;
36551;SDS011;22559;54.176;12.102;2022-08-07T07:53:12;5.30;;;2.53;;
36551;SDS011;22559;54.176;12.102;2022-08-07T07:55:40;4.15;;;2.70;;
36551;SDS011;22559;54.176;12.102;2022-08-07T07:58:06;2.42;;;2.22;;
36551;SDS011;22559;54.176;12.102;2022-08-07T08:00:32;3.47;;;2.78;;
36551;SDS011;22559;54.176;12.102;2022-08-07T08:03:00;4.18;;;2.90;;
36551;SDS011;22559;54.176;12.102;2022-08-07T08:05:36;5.82;;;2.80;;
36551;SDS011;22559;54.176;12.102;2022-08-07T08:08:04;2.83;;;2.63;;
36551;SDS011;22559;54.176;12.102;2022-08-07T08:10:32;3.67;;;2.55;;
36551;SDS011;22559;54.176;12.102;2022-08-07T08:12:58;4.13;;;2.83;;
36551;SDS011;22559;54.176;12.102;2022-08-07T08:15:26;2.47;;;2.28;;
36551;SDS011;22559;54.176;12.102;2022-08-07T08:17:55;3.47;;;2.45;;
36551;SDS011;22559;54.176;12.102;2022-08-07T08:20:23;2.58;;;2.38;;
36551;SDS011;22559;54.176;12.102;2022-08-07T08:22:50;3.63;;;2.90;;
36551;SDS011;22559;54.176;12.102;2022-08-07T08:25:37;4.72;;;2.47;;
36551;SDS011;22559;54.176;12.102;2022-08-07T08:28:26;3.20;;;3.00;;
36551;SDS011;22559;54.176;12.102;2022-08-07T08:30:57;2.95;;;2.60;;
36551;SDS011;22559;54.176;12.102;2022-08-07T08:33:28;3.00;;;2.70;;
36551;SDS011;22559;54.176;12.102;2022-08-07T08:35:56;2.70;;;2.50;;
36551;SDS011;22559;54.176;12.102;2022-08-07T08:38:24;3.00;;;2.70;;
36551;SDS011;22559;54.176;12.102;2022-08-07T08:41:01;5.30;;;3.60;;
36551;SDS011;22559;54.176;12.102;2022-08-07T08:46:17;2.70;;;2.50;;
36551;SDS011;22559;54.176;12.102;2022-08-07T08:49:12;3.65;;;3.28;;
36551;SDS011;22559;54.176;12.102;2022-08-07T08:51:55;4.95;;;3.10;;
36551;SDS011;22559;54.176;12.102;2022-08-07T08:54:29;6.25;;;2.90;;
36551;SDS011;22559;54.176;12.102;2022-08-07T08:57:03;5.80;;;3.05;;
36551;SDS011;22559;54.176;12.102;2022-08-07T09:07:56;2.92;;;2.60;;
36551;SDS011;22559;54.176;12.102;2022-08-07T09:10:43;2.55;;;2.25;;
36551;SDS011;22559;54.176;12.102;2022-08-07T09:13:22;3.45;;;2.58;;
36551;SDS011;22559;54.176;12.102;2022-08-07T09:16:12;2.60;;;2.42;;
36551;SDS011;22559;54.176;12.102;2022-08-07T09:21:34;3.90;;;2.40;;
36551;SDS011;22559;54.176;12.102;2022-08-07T09:30:08;2.33;;;2.15;;
36551;SDS011;22559;54.176;12.102;2022-08-07T09:40:34;2.67;;;2.25;;
36551;SDS011;22559;54.176;12.102;2022-08-07T09:45:43;2.05;;;1.95;;
36551;SDS011;22559;54.176;12.102;2022-08-07T09:54:05;2.25;;;2.00;;
36551;SDS011;22559;54.176;12.102;2022-08-07T10:04:44;2.28;;;1.67;;
36551;SDS011;22559;54.176;12.102;2022-08-07T10:07:24;4.05;;;2.30;;
36551;SDS011;22559;54.176;12.102;2022-08-07T10:21:19;2.38;;;1.80;;
36551;SDS011;22559;54.176;12.102;2022-08-07T10:27:30;1.95;;;1.70;;
36551;SDS011;22559;54.176;12.102;2022-08-07T10:30:16;1.83;;;1.73;;
36551;SDS011;22559;54.176;12.102;2022-08-07T10:35:45;2.38;;;1.73;;
36551;SDS011;22559;54.176;12.102;2022-08-07T10:38:31;2.22;;;1.77;;
36551;SDS011;22559;54.176;12.102;2022-08-07T10:41:32;2.40;;;1.50;;
36551;SDS011;22559;54.176;12.102;2022-08-07T10:44:09;1.90;;;1.80;;
36551;SDS011;22559;54.176;12.102;2022-08-07T10:46:48;1.52;;;1.50;;
36551;SDS011;22559;54.176;12.102;2022-08-07T10:49:21;1.30;;;1.30;;
36551;SDS011;22559;54.176;12.102;2022-08-07T10:52:02;1.80;;;1.65;;
36551;SDS011;22559;54.176;12.102;2022-08-07T10:57:31;1.60;;;1.50;;
36551;SDS011;22559;54.176;12.102;2022-08-07T11:10:19;2.00;;;1.80;;
36551;SDS011;22559;54.176;12.102;2022-08-07T11:15:44;1.90;;;1.80;;
36551;SDS011;22559;54.176;12.102;2022-08-07T11:18:14;2.42;;;1.70;;
36551;SDS011;22559;54.176;12.102;2022-08-07T11:26:12;2.10;;;2.00;;
36551;SDS011;22559;54.176;12.102;2022-08-07T11:28:57;1.90;;;1.80;;
36551;SDS011;22559;54.176;12.102;2022-08-07T11:31:40;3.80;;;2.15;;
36551;SDS011;22559;54.176;12.102;2022-08-07T11:42:36;3.00;;;2.00;;
36551;SDS011;22559;54.176;12.102;2022-08-07T11:45:26;3.78;;;1.88;;
36551;SDS011;22559;54.176;12.102;2022-08-07T11:48:11;4.03;;;2.15;;
36551;SDS011;22559;54.176;12.102;2022-08-07T12:01:48;2.72;;;2.08;;
36551;SDS011;22559;54.176;12.102;2022-08-07T12:04:37;3.00;;;2.70;;
36551;SDS011;22559;54.176;12.102;2022-08-07T12:07:23;3.90;;;2.47;;
36551;SDS011;22559;54.176;12.102;2022-08-07T12:09:54;2.53;;;2.30;;
36551;SDS011;22559;54.176;12.102;2022-08-07T12:17:56;2.40;;;2.20;;
36551;SDS011;22559;54.176;12.102;2022-08-07T12:20:57;2.50;;;2.30;;
36551;SDS011;22559;54.176;12.102;2022-08-07T12:26:30;3.97;;;2.50;;
36551;SDS011;22559;54.176;12.102;2022-08-07T12:29:10;2.95;;;2.30;;
36551;SDS011;22559;54.176;12.102;2022-08-07T12:32:26;2.50;;;2.30;;
36551;SDS011;22559;54.176;12.102;2022-08-07T12:34:46;3.00;;;2.55;;
36551;SDS011;22559;54.176;12.102;2022-08-07T12:37:15;2.50;;;2.30;;
36551;SDS011;22559;54.176;12.102;2022-08-07T12:39:44;3.05;;;2.58;;
36551;SDS011;22559;54.176;12.102;2022-08-07T12:42:15;2.10;;;2.00;;
36551;SDS011;22559;54.176;12.102;2022-08-07T12:44:46;3.25;;;2.30;;
36551;SDS011;22559;54.176;12.102;2022-08-07T12:52:46;2.75;;;2.17;;
36551;SDS011;22559;54.176;12.102;2022-08-07T12:57:48;2.58;;;2.38;;
36551;SDS011;22559;54.176;12.102;2022-08-07T13:00:15;2.40;;;2.20;;
36551;SDS011;22559;54.176;12.102;2022-08-07T13:11:36;3.05;;;2.47;;
36551;SDS011;22559;54.176;12.102;2022-08-07T13:17:10;2.47;;;2.38;;
36551;SDS011;22559;54.176;12.102;2022-08-07T13:19:46;3.15;;;2.33;;
36551;SDS011;22559;54.176;12.102;2022-08-07T13:25:05;2.60;;;2.40;;
36551;SDS011;22559;54.176;12.102;2022-08-07T13:27:39;2.38;;;2.28;;
36551;SDS011;22559;54.176;12.102;2022-08-07T13:30:12;2.90;;;2.55;;
36551;SDS011;22559;54.176;12.102;2022-08-07T13:35:35;3.08;;;2.75;;
36551;SDS011;22559;54.176;12.102;2022-08-07T13:41:10;3.13;;;2.83;;
36551;SDS011;22559;54.176;12.102;2022-08-07T13:43:43;3.13;;;2.80;;
36551;SDS011;22559;54.176;12.102;2022-08-07T13:46:12;2.70;;;2.55;;
36551;SDS011;22559;54.176;12.102;2022-08-07T13:48:42;2.55;;;2.40;;
36551;SDS011;22559;54.176;12.102;2022-08-07T13:51:10;2.78;;;2.58;;
36551;SDS011;22559;54.176;12.102;2022-08-07T13:53:38;2.75;;;2.55;;
36551;SDS011;22559;54.176;12.102;2022-08-07T13:56:07;2.67;;;2.47;;
36551;SDS011;22559;54.176;12.102;2022-08-07T13:58:36;4.22;;;3.08;;
36551;SDS011;22559;54.176;12.102;2022-08-07T14:01:25;4.00;;;3.58;;
36551;SDS011;22559;54.176;12.102;2022-08-07T14:03:52;3.08;;;2.78;;
36551;SDS011;22559;54.176;12.102;2022-08-07T14:06:20;2.80;;;2.60;;
36551;SDS011;22559;54.176;12.102;2022-08-07T14:08:48;3.55;;;2.90;;
36551;SDS011;22559;54.176;12.102;2022-08-07T14:11:16;3.05;;;2.75;;
36551;SDS011;22559;54.176;12.102;2022-08-07T14:13:50;3.80;;;3.50;;
36551;SDS011;22559;54.176;12.102;2022-08-07T14:16:20;4.15;;;3.10;;
36551;SDS011;22559;54.176;12.102;2022-08-07T14:18:49;3.35;;;2.90;;
36551;SDS011;22559;54.176;12.102;2022-08-07T14:21:39;3.67;;;3.38;;
36551;SDS011;22559;54.176;12.102;2022-08-07T14:24:11;3.28;;;2.97;;
36551;SDS011;22559;54.176;12.102;2022-08-07T14:26:47;2.85;;;2.67;;
36551;SDS011;22559;54.176;12.102;2022-08-07T14:29:16;3.08;;;2.85;;
36551;SDS011;22559;54.176;12.102;2022-08-07T14:31:45;5.63;;;2.70;;
36551;SDS011;22559;54.176;12.102;2022-08-07T14:34:13;3.78;;;2.83;;
36551;SDS011;22559;54.176;12.102;2022-08-07T14:36:41;3.03;;;2.75;;
36551;SDS011;22559;54.176;12.102;2022-08-07T14:39:07;2.90;;;2.70;;
36551;SDS011;22559;54.176;12.102;2022-08-07T14:41:35;3.03;;;2.83;;
36551;SDS011;22559;54.176;12.102;2022-08-07T14:44:04;2.70;;;2.50;;
36551;SDS011;22559;54.176;12.102;2022-08-07T14:46:34;2.75;;;2.55;;
36551;SDS011;22559;54.176;12.102;2022-08-07T14:49:02;2.97;;;2.50;;
36551;SDS011;22559;54.176;12.102;2022-08-07T14:51:29;5.20;;;2.80;;
36551;SDS011;22559;54.176;12.102;2022-08-07T14:53:57;2.88;;;2.67;;
36551;SDS011;22559;54.176;12.102;2022-08-07T14:56:25;3.03;;;2.60;;
36551;SDS011;22559;54.176;12.102;2022-08-07T14:58:53;2.75;;;2.55;;
36551;SDS011;22559;54.176;12.102;2022-08-07T15:01:27;2.65;;;2.45;;
36551;SDS011;22559;54.176;12.102;2022-08-07T15:04:03;3.78;;;2.90;;
36551;SDS011;22559;54.176;12.102;2022-08-07T15:06:31;3.30;;;3.00;;
36551;SDS011;22559;54.176;12.102;2022-08-07T15:09:09;3.35;;;3.15;;
36551;SDS011;22559;54.176;12.102;2022-08-07T15:11:40;4.95;;;3.08;;
36551;SDS011;22559;54.176;12.102;2022-08-07T15:14:21;2.70;;;2.60;;
36551;SDS011;22559;54.176;12.102;2022-08-07T15:17:12;3.13;;;2.72;;
36551;SDS011;22559;54.176;12.102;2022-08-07T15:19:43;4.53;;;2.95;;
36551;SDS011;22559;54.176;12.102;2022-08-07T15:22:14;2.60;;;2.50;;
36551;SDS011;22559;54.176;12.102;2022-08-07T15:24:41;3.22;;;2.75;;
36551;SDS011;22559;54.176;12.102;2022-08-07T15:27:23;3.13;;;2.67;;
36551;SDS011;22559;54.176;12.102;2022-08-07T15:29:53;3.00;;;2.80;;
36551;SDS011;22559;54.176;12.102;2022-08-07T15:32:21;3.15;;;2.90;;
36551;SDS011;22559;54.176;12.102;2022-08-07T15:34:50;2.90;;;2.70;;
36551;SDS011;22559;54.176;12.102;2022-08-07T15:37:28;2.90;;;2.70;;
36551;SDS011;22559;54.176;12.102;2022-08-07T15:39:57;2.67;;;2.58;;
36551;SDS011;22559;54.176;12.102;2022-08-07T15:45:05;4.25;;;2.55;;
36551;SDS011;22559;54.176;12.102;2022-08-07T15:47:51;3.80;;;2.83;;
36551;SDS011;22559;54.176;12.102;2022-08-07T15:50:19;3.40;;;3.13;;
36551;SDS011;22559;54.176;12.102;2022-08-07T15:52:50;3.33;;;3.10;;
36551;SDS011;22559;54.176;12.102;2022-08-07T15:55:23;2.97;;;2.70;;
36551;SDS011;22559;54.176;12.102;2022-08-07T15:57:51;3.53;;;3.25;;
36551;SDS011;22559;54.176;12.102;2022-08-07T16:00:20;4.05;;;2.90;;
36551;SDS011;22559;54.176;12.102;2022-08-07T16:02:46;3.17;;;2.95;;
36551;SDS011;22559;54.176;12.102;2022-08-07T16:05:17;3.58;;;2.80;;
36551;SDS011;22559;54.176;12.102;2022-08-07T16:07:46;3.05;;;2.85;;
36551;SDS011;22559;54.176;12.102;2022-08-07T16:10:15;3.90;;;3.50;;
36551;SDS011;22559;54.176;12.102;2022-08-07T16:12:50;4.25;;;3.40;;
36551;SDS011;22559;54.176;12.102;2022-08-07T16:23:31;3.67;;;3.38;;
36551;SDS011;22559;54.176;12.102;2022-08-07T16:26:11;3.58;;;3.13;;
36551;SDS011;22559;54.176;12.102;2022-08-07T16:28:49;3.20;;;3.00;;
36551;SDS011;22559;54.176;12.102;2022-08-07T16:31:37;3.30;;;3.10;;
36551;SDS011;22559;54.176;12.102;2022-08-07T16:42:57;3.30;;;3.10;;
36551;SDS011;22559;54.176;12.102;2022-08-07T16:45:44;3.58;;;3.30;;
36551;SDS011;22559;54.176;12.102;2022-08-07T16:54:28;4.53;;;3.60;;
36551;SDS011;22559;54.176;12.102;2022-08-07T17:02:27;3.65;;;3.35;;
36551;SDS011;22559;54.176;12.102;2022-08-07T17:05:11;4.90;;;3.67;;
36551;SDS011;22559;54.176;12.102;2022-08-07T17:07:50;3.70;;;3.40;;
36551;SDS011;22559;54.176;12.102;2022-08-07T17:12:52;5.35;;;3.90;;
36551;SDS011;22559;54.176;12.102;2022-08-07T17:15:39;5.75;;;4.20;;
36551;SDS011;22559;54.176;12.102;2022-08-07T17:18:22;4.78;;;3.60;;
36551;SDS011;22559;54.176;12.102;2022-08-07T17:21:09;3.97;;;3.67;;
36551;SDS011;22559;54.176;12.102;2022-08-07T17:23:47;4.15;;;3.85;;
36551;SDS011;22559;54.176;12.102;2022-08-07T17:26:37;4.32;;;3.83;;
36551;SDS011;22559;54.176;12.102;2022-08-07T17:29:48;5.63;;;3.83;;
36551;SDS011;22559;54.176;12.102;2022-08-07T17:35:14;3.78;;;3.45;;
36551;SDS011;22559;54.176;12.102;2022-08-07T17:43:10;3.60;;;3.40;;
36551;SDS011;22559;54.176;12.102;2022-08-07T17:45:40;4.40;;;3.88;;
36551;SDS011;22559;54.176;12.102;2022-08-07T17:48:20;4.78;;;4.10;;
36551;SDS011;22559;54.176;12.102;2022-08-07T17:53:33;4.10;;;3.80;;
36551;SDS011;22559;54.176;12.102;2022-08-07T17:56:20;4.15;;;3.40;;
36551;SDS011;22559;54.176;12.102;2022-08-07T18:01:19;4.50;;;4.20;;
36551;SDS011;22559;54.176;12.102;2022-08-07T18:06:38;3.83;;;3.50;;
36551;SDS011;22559;54.176;12.102;2022-08-07T18:09:14;4.20;;;3.60;;
36551;SDS011;22559;54.176;12.102;2022-08-07T18:12:07;3.85;;;3.53;;
36551;SDS011;22559;54.176;12.102;2022-08-07T18:20:03;4.10;;;3.65;;
36551;SDS011;22559;54.176;12.102;2022-08-07T18:25:30;4.57;;;4.18;;
36551;SDS011;22559;54.176;12.102;2022-08-07T18:28:11;3.50;;;3.20;;
36551;SDS011;22559;54.176;12.102;2022-08-07T18:30:59;4.00;;;3.70;;
36551;SDS011;22559;54.176;12.102;2022-08-07T18:47:36;3.92;;;3.63;;